createdAt,value
2019-05-10T00:02:14.181Z,98802.30
2019-05-10T00:05:00.643Z,98804.97
2019-05-10T00:07:47.630Z,98803.50
2019-05-10T00:10:15.766Z,98803.10
2019-05-10T00:13:05.370Z,98797.67
2019-05-10T00:15:35.010Z,98794.55
2019-05-10T00:18:03.669Z,98797.99
2019-05-10T00:20:32.339Z,98793.36
2019-05-10T00:23:00.874Z,98795.25
2019-05-10T00:25:29.352Z,98797.80
2019-05-10T00:27:57.842Z,98807.88
2019-05-10T00:30:26.405Z,98798.23
2019-05-10T00:32:55.097Z,98803.59
2019-05-10T00:35:23.813Z,98804.37
2019-05-10T00:37:52.495Z,98798.72
2019-05-10T00:40:21.298Z,98796.99
2019-05-10T00:42:50.014Z,98799.98
2019-05-10T00:45:18.600Z,98807.05
2019-05-10T00:47:47.295Z,98804.28
2019-05-10T00:50:15.777Z,98800.23
2019-05-10T00:52:44.388Z,98797.72
2019-05-10T00:55:18.860Z,98803.41
2019-05-10T00:57:43.508Z,98803.41
2019-05-10T01:00:12.469Z,98802.13
2019-05-10T01:02:41.104Z,98801.48
2019-05-10T01:05:09.752Z,98801.07
2019-05-10T01:07:38.310Z,98795.13
2019-05-10T01:10:07.123Z,98793.22
2019-05-10T01:12:35.617Z,98789.27
2019-05-10T01:15:04.642Z,98787.47
2019-05-10T01:17:33.228Z,98783.48
2019-05-10T01:20:02.260Z,98780.33
2019-05-10T01:22:31.028Z,98782.31
2019-05-10T01:24:59.742Z,98784.11
2019-05-10T01:27:28.526Z,98779.14
2019-05-10T01:29:56.991Z,98784.25
2019-05-10T01:32:25.582Z,98783.06
2019-05-10T01:34:54.199Z,98782.16
2019-05-10T01:37:22.695Z,98783.60
2019-05-10T01:39:51.420Z,98779.30
2019-05-10T01:42:20.009Z,98779.83
2019-05-10T01:44:48.529Z,98782.17
2019-05-10T01:47:17.010Z,98775.70
2019-05-10T01:49:45.613Z,98775.20
2019-05-10T01:52:14.608Z,98778.97
2019-05-10T01:54:43.313Z,98775.57
2019-05-10T01:57:11.931Z,98772.59
2019-05-10T01:59:40.539Z,98778.62
2019-05-10T02:02:09.144Z,98778.72
2019-05-10T02:04:37.712Z,98782.22
2019-05-10T02:07:06.617Z,98783.53
2019-05-10T02:09:35.220Z,98780.30
2019-05-10T02:12:03.829Z,98770.84
2019-05-10T02:14:32.323Z,98763.95
2019-05-10T02:17:00.917Z,98763.27
2019-05-10T02:19:29.369Z,98769.83
2019-05-10T02:21:57.981Z,98770.04
2019-05-10T02:24:26.605Z,98770.02
2019-05-10T02:26:55.324Z,98772.50
2019-05-10T02:29:23.920Z,98785.86
2019-05-10T02:31:52.513Z,98789.23
2019-05-10T02:34:21.005Z,98789.87
2019-05-10T02:36:49.612Z,98784.18
2019-05-10T02:39:18.212Z,98782.77
2019-05-10T02:41:46.726Z,98790.72
2019-05-10T02:44:15.304Z,98795.36
2019-05-10T02:46:43.877Z,98795.49
2019-05-10T02:49:12.358Z,98799.06
2019-05-10T02:51:40.931Z,98796.44
2019-05-10T02:54:09.529Z,98801.23
2019-05-10T02:56:38.747Z,98802.94
2019-05-10T02:59:09.912Z,98796.69
2019-05-10T03:01:43.575Z,98794.17
2019-05-10T03:04:13.475Z,98794.64
2019-05-10T03:06:43.677Z,98794.14
2019-05-10T03:09:12.213Z,98795.58
2019-05-10T03:11:48.617Z,98798.94
2019-05-10T03:14:18.323Z,98801.83
2019-05-10T03:16:49.595Z,98792.77
2019-05-10T03:19:19.549Z,98797.11
2019-05-10T03:21:54.126Z,98799.75
2019-05-10T03:24:27.592Z,98800.25
2019-05-10T03:26:53.340Z,98800.91
2019-05-10T03:29:21.922Z,98792.67
2019-05-10T03:31:50.533Z,98793.53
2019-05-10T03:34:19.115Z,98796.98
2019-05-10T03:36:47.914Z,98796.63
2019-05-10T03:39:16.611Z,98802.48
2019-05-10T03:41:45.299Z,98808.94
2019-05-10T03:44:13.881Z,98806.69
2019-05-10T03:46:42.470Z,98800.30
2019-05-10T03:49:11.156Z,98799.97
2019-05-10T03:51:39.637Z,98801.23
2019-05-10T03:54:08.231Z,98797.36
2019-05-10T03:56:36.942Z,98801.23
2019-05-10T03:59:05.533Z,98793.33
2019-05-10T04:01:34.006Z,98790.84
2019-05-10T04:04:02.726Z,98797.48
2019-05-10T04:06:31.403Z,98798.59
2019-05-10T04:08:59.980Z,98796.33
2019-05-10T04:11:28.575Z,98805.79
2019-05-10T04:13:57.243Z,98811.92
2019-05-10T04:16:25.825Z,98812.39
2019-05-10T04:18:54.407Z,98809.20
2019-05-10T04:21:22.994Z,98806.30
2019-05-10T04:23:51.614Z,98818.44
2019-05-10T04:26:20.180Z,98833.17
2019-05-10T04:28:48.804Z,98829.92
2019-05-10T04:31:17.412Z,98823.34
2019-05-10T04:33:46.035Z,98817.92
2019-05-10T04:36:14.625Z,98819.20
2019-05-10T04:38:43.363Z,98821.55
2019-05-10T04:41:11.967Z,98825.25
2019-05-10T04:43:40.455Z,98831.68
2019-05-10T04:46:09.016Z,98835.55
2019-05-10T04:48:37.701Z,98826.73
2019-05-10T04:51:07.438Z,98825.67
2019-05-10T04:53:35.972Z,98824.91
2019-05-10T04:56:04.581Z,98821.45
2019-05-10T04:58:33.076Z,98815.19
2019-05-10T05:01:01.579Z,98819.75
2019-05-10T05:03:30.269Z,98829.09
2019-05-10T05:05:58.850Z,98834.78
2019-05-10T05:08:27.442Z,98839.91
2019-05-10T05:10:56.167Z,98833.05
2019-05-10T05:13:24.697Z,98841.48
2019-05-10T05:15:53.320Z,98849.66
2019-05-10T05:18:21.996Z,98854.22
2019-05-10T05:20:50.547Z,98846.57
2019-05-10T05:23:19.084Z,98848.39
2019-05-10T05:25:47.696Z,98853.92
2019-05-10T05:28:18.427Z,98854.30
2019-05-10T05:30:46.679Z,98857.06
2019-05-10T05:33:15.180Z,98859.28
2019-05-10T05:35:43.770Z,98858.66
2019-05-10T05:38:12.390Z,98860.09
2019-05-10T05:40:41.067Z,98860.86
2019-05-10T05:43:09.888Z,98851.69
2019-05-10T05:45:38.490Z,98854.40
2019-05-10T05:48:07.169Z,98854.64
2019-05-10T05:50:35.639Z,98855.63
2019-05-10T05:53:04.165Z,98845.77
2019-05-10T05:55:32.991Z,98843.70
2019-05-10T05:58:04.940Z,98843.02
2019-05-10T06:00:37.668Z,98837.59
2019-05-10T06:03:03.007Z,98834.45
2019-05-10T06:05:34.988Z,98832.78
2019-05-10T06:08:02.353Z,98839.27
2019-05-10T06:10:31.130Z,98839.98
2019-05-10T06:12:59.968Z,98830.38
2019-05-10T06:15:31.055Z,98840.70
2019-05-10T06:18:03.669Z,98845.63
2019-05-10T06:20:29.935Z,98844.66
2019-05-10T06:23:06.354Z,98850.31
2019-05-10T06:25:39.793Z,98857.44
2019-05-10T06:27:59.870Z,98850.69
2019-05-10T06:30:28.481Z,98851.05
2019-05-10T06:33:00.796Z,98854.55
2019-05-10T06:35:27.672Z,98857.56
2019-05-10T06:37:56.282Z,98858.89
2019-05-10T06:40:35.624Z,98860.44
2019-05-10T06:42:56.073Z,98859.22
2019-05-10T06:45:25.419Z,98863.80
2019-05-10T06:47:54.635Z,98867.66
2019-05-10T06:50:29.802Z,98874.03
2019-05-10T06:52:53.943Z,98878.11
2019-05-10T06:55:22.332Z,98885.80
2019-05-10T06:57:59.588Z,98882.69
2019-05-10T07:00:21.188Z,98880.16
2019-05-10T07:02:49.597Z,98880.89
2019-05-10T07:05:18.204Z,98889.17
2019-05-10T07:07:46.826Z,98886.91
2019-05-10T07:10:18.929Z,98893.38
2019-05-10T07:12:45.945Z,98890.83
2019-05-10T07:15:14.614Z,98890.35
2019-05-10T07:17:47.026Z,98885.56
2019-05-10T07:20:13.571Z,98885.91
2019-05-10T07:22:41.926Z,98883.22
2019-05-10T07:25:10.640Z,98879.77
2019-05-10T07:27:39.275Z,98880.02
2019-05-10T07:30:08.383Z,98888.44
2019-05-10T07:32:37.199Z,98891.62
2019-05-10T07:35:06.080Z,98892.62
2019-05-10T07:37:34.611Z,98899.34
2019-05-10T07:40:03.897Z,98898.67
2019-05-10T07:42:32.391Z,98898.27
2019-05-10T07:45:01.404Z,98892.08
2019-05-10T07:47:30.893Z,98890.53
2019-05-10T07:50:04.018Z,98893.27
2019-05-10T07:52:30.743Z,98896.84
2019-05-10T07:54:59.190Z,98893.61
2019-05-10T07:57:28.605Z,98893.61
2019-05-10T08:00:03.056Z,98893.61
2019-05-10T08:02:28.058Z,98893.19
2019-05-10T08:04:58.452Z,98894.85
2019-05-10T08:07:29.378Z,98897.34
2019-05-10T08:09:59.468Z,98891.06
2019-05-10T08:12:28.826Z,98895.87
2019-05-10T08:14:59.016Z,98897.64
2019-05-10T08:17:28.717Z,98892.73
2019-05-10T08:19:57.461Z,98890.41
2019-05-10T08:22:26.066Z,98896.52
2019-05-10T08:24:56.385Z,98894.02
2019-05-10T08:27:24.879Z,98889.80
2019-05-10T08:30:18.049Z,98889.25
2019-05-10T08:32:25.632Z,98888.59
2019-05-10T08:34:55.834Z,98889.44
2019-05-10T08:37:33.127Z,98889.67
2019-05-10T08:39:56.055Z,98880.94
2019-05-10T08:42:35.613Z,98880.48
2019-05-10T08:45:03.761Z,98887.67
2019-05-10T08:47:27.805Z,98885.23
2019-05-10T08:50:10.503Z,98890.91
2019-05-10T08:52:30.927Z,98886.77
2019-05-10T08:54:57.240Z,98895.17
2019-05-10T08:57:25.767Z,98897.83
2019-05-10T09:00:06.562Z,98893.45
2019-05-10T09:02:29.049Z,98891.00
2019-05-10T09:04:55.232Z,98888.87
2019-05-10T09:07:23.664Z,98894.41
2019-05-10T09:09:53.098Z,98892.65
2019-05-10T09:12:23.067Z,98887.03
2019-05-10T09:14:57.366Z,98885.07
2019-05-10T09:17:27.132Z,98880.24
2019-05-10T09:19:52.889Z,98877.42
2019-05-10T09:22:26.042Z,98871.89
2019-05-10T09:24:53.069Z,98876.93
2019-05-10T09:27:22.467Z,98874.47
2019-05-10T09:29:53.069Z,98879.87
2019-05-10T09:32:28.660Z,98879.02
2019-05-10T09:34:54.319Z,98864.73
2019-05-10T09:37:23.118Z,98862.24
2019-05-10T09:39:54.868Z,98873.65
2019-05-10T09:42:26.483Z,98868.75
2019-05-10T09:44:52.815Z,98862.05
2019-05-10T09:47:22.232Z,98869.72
2019-05-10T09:49:58.508Z,98867.13
2019-05-10T09:52:21.981Z,98871.13
2019-05-10T09:54:50.623Z,98867.23
2019-05-10T09:57:19.238Z,98886.41
2019-05-10T09:59:47.843Z,98882.63
2019-05-10T10:02:18.810Z,98888.32
2019-05-10T10:04:47.398Z,98888.03
2019-05-10T10:07:18.736Z,98883.91
2019-05-10T10:09:47.757Z,98880.70
2019-05-10T10:12:17.517Z,98867.65
2019-05-10T10:14:47.257Z,98870.44
2019-05-10T10:17:18.395Z,98868.43
2019-05-10T10:19:48.068Z,98868.80
2019-05-10T10:22:17.375Z,98882.25
2019-05-10T10:24:49.136Z,98870.89
2019-05-10T10:27:18.053Z,98863.55
2019-05-10T10:29:47.443Z,98871.78
2019-05-10T10:32:16.280Z,98863.07
2019-05-10T10:34:44.765Z,98872.08
2019-05-10T10:37:14.582Z,98872.79
2019-05-10T10:39:44.280Z,98873.93
2019-05-10T10:42:13.412Z,98871.31
2019-05-10T10:44:42.173Z,98874.44
2019-05-10T10:47:10.629Z,98875.27
2019-05-10T10:49:39.233Z,98861.73
2019-05-10T10:52:11.439Z,98860.59
2019-05-10T10:54:39.871Z,98858.80
2019-05-10T10:57:08.786Z,98844.86
2019-05-10T10:59:37.587Z,98841.39
2019-05-10T11:02:28.987Z,98847.05
2019-05-10T11:04:40.717Z,98838.92
2019-05-10T11:07:10.261Z,98844.33
2019-05-10T11:09:37.406Z,98824.36
2019-05-10T11:12:05.913Z,98832.28
2019-05-10T11:14:39.914Z,98820.19
2019-05-10T11:17:05.060Z,98826.66
2019-05-10T11:19:33.555Z,98817.63
2019-05-10T11:22:09.358Z,98822.84
2019-05-10T11:24:32.695Z,98820.03
2019-05-10T11:27:01.187Z,98818.48
2019-05-10T11:29:30.816Z,98825.64
2019-05-10T11:32:15.234Z,98815.47
2019-05-10T11:34:37.292Z,98823.48
2019-05-10T11:37:00.521Z,98831.67
2019-05-10T11:39:34.780Z,98844.22
2019-05-10T11:42:06.719Z,98839.70
2019-05-10T11:44:31.675Z,98835.92
2019-05-10T11:47:01.555Z,98844.41
2019-05-10T11:49:30.865Z,98838.39
2019-05-10T11:52:01.663Z,98839.55
2019-05-10T11:54:31.930Z,98836.91
2019-05-10T11:57:06.614Z,98844.61
2019-05-10T11:59:33.750Z,98843.95
2019-05-10T12:02:02.916Z,98851.56
2019-05-10T12:04:38.817Z,98846.27
2019-05-10T12:07:08.468Z,98854.75
2019-05-10T12:09:33.718Z,98856.41
2019-05-10T12:19:14.854Z,98846.59
2019-05-10T12:21:33.536Z,98858.39
2019-05-10T12:24:10.350Z,98855.98
2019-05-10T12:27:13.340Z,98859.91
2019-05-10T12:29:12.426Z,98852.72
2019-05-10T12:31:34.631Z,98847.90
2019-05-10T12:34:09.283Z,98855.25
2019-05-10T12:36:33.844Z,98872.21
2019-05-10T12:39:04.835Z,98872.09
2019-05-10T12:41:33.437Z,98877.11
2019-05-10T12:44:04.192Z,98880.08
2019-05-10T12:46:32.744Z,98875.91
2019-05-10T12:49:04.716Z,98881.11
2019-05-10T12:51:32.312Z,98881.37
2019-05-10T12:54:00.897Z,98875.68
2019-05-10T12:56:35.022Z,98867.35
2019-05-10T12:58:59.942Z,98870.39
2019-05-10T13:01:31.846Z,98868.59
2019-05-10T13:04:01.958Z,98871.84
2019-05-10T13:06:29.741Z,98876.79
2019-05-10T13:08:58.221Z,98873.41
2019-05-10T13:11:27.127Z,98875.00
2019-05-10T13:14:01.049Z,98873.41
2019-05-10T13:16:26.806Z,98875.16
2019-05-10T13:18:55.680Z,98878.77
2019-05-10T13:21:24.465Z,98868.98
2019-05-10T13:23:55.223Z,98864.23
2019-05-10T13:26:23.882Z,98862.86
2019-05-10T13:28:52.611Z,98865.89
2019-05-10T13:31:21.185Z,98883.36
2019-05-10T13:33:49.688Z,98886.86
2019-05-10T13:36:18.314Z,98874.20
2019-05-10T13:38:49.194Z,98878.20
2019-05-10T13:41:23.464Z,98882.28
2019-05-10T13:43:48.867Z,98882.45
2019-05-10T13:46:17.554Z,98878.94
2019-05-10T13:48:46.386Z,98877.07
2019-05-10T13:51:14.872Z,98880.69
2019-05-10T13:53:43.673Z,98883.33
2019-05-10T13:56:12.163Z,98877.08
2019-05-10T13:58:40.880Z,98896.92
2019-05-10T14:01:13.075Z,98891.13
2019-05-10T14:03:44.390Z,98891.50
2019-05-10T14:06:10.945Z,98900.75
2019-05-10T14:08:42.866Z,98902.82
2019-05-10T14:11:09.788Z,98907.55
2019-05-10T14:13:41.355Z,98917.10
2019-05-10T14:16:18.344Z,98926.16
2019-05-10T14:18:39.582Z,98924.84
2019-05-10T14:21:08.382Z,98915.77
2019-05-10T14:23:37.496Z,98921.68
2019-05-10T14:26:09.330Z,98926.04
2019-05-10T14:28:36.764Z,98922.97
2019-05-10T14:31:05.382Z,98925.70
2019-05-10T14:33:34.213Z,98932.00
2019-05-10T14:36:03.403Z,98936.13
2019-05-10T14:38:32.120Z,98935.70
2019-05-10T14:41:03.871Z,98937.15
2019-05-10T14:43:31.322Z,98934.07
2019-05-10T14:46:00.230Z,98941.70
2019-05-10T14:48:30.694Z,98933.84
2019-05-10T14:51:03.090Z,98941.42
2019-05-10T14:53:30.319Z,98942.53
2019-05-10T14:55:58.911Z,98951.45
2019-05-10T14:58:27.404Z,98954.35
2019-05-10T15:00:56.730Z,98954.75
2019-05-10T15:03:25.203Z,98952.28
2019-05-10T15:05:55.621Z,98951.91
2019-05-10T15:08:24.215Z,98954.52
2019-05-10T15:10:52.804Z,98955.34
2019-05-10T15:13:25.517Z,98962.32
2019-05-10T15:15:52.390Z,98966.06
2019-05-10T15:18:21.298Z,98976.33
2019-05-10T15:20:49.739Z,98971.77
2019-05-10T15:23:18.328Z,98977.45
2019-05-10T15:25:56.377Z,98974.66
2019-05-10T15:28:17.331Z,98971.85
2019-05-10T15:30:51.924Z,98970.80
2019-05-10T15:33:16.603Z,98971.22
2019-05-10T15:35:51.242Z,98973.43
2019-05-10T15:38:15.946Z,98976.16
2019-05-10T15:40:45.992Z,98977.48
2019-05-10T15:43:16.937Z,98973.05
2019-05-10T15:45:52.189Z,98979.72
2019-05-10T15:48:16.409Z,98977.91
2019-05-10T15:50:45.225Z,98977.38
2019-05-10T15:53:13.765Z,98986.20
2019-05-10T15:55:42.409Z,98980.97
2019-05-10T15:58:14.722Z,98976.33
2019-05-10T16:00:43.306Z,98978.23
2019-05-10T16:03:11.795Z,98985.41
2019-05-10T16:05:43.812Z,98981.89
2019-05-10T16:08:13.624Z,98973.91
2019-05-10T16:10:41.216Z,98973.02
2019-05-10T16:13:15.197Z,98973.83
2019-05-10T16:15:40.219Z,98980.80
2019-05-10T16:18:09.026Z,98984.58
2019-05-10T16:20:39.070Z,98991.22
2019-05-10T16:23:08.585Z,98990.96
2019-05-10T16:25:42.028Z,98995.09
2019-05-10T16:28:08.971Z,99000.31
2019-05-10T16:30:37.680Z,99003.13
2019-05-10T16:33:09.590Z,99000.63
2019-05-10T16:35:39.118Z,99002.43
2019-05-10T16:38:07.606Z,99005.98
2019-05-10T16:40:36.006Z,99004.02
2019-05-10T16:43:06.942Z,99007.17
2019-05-10T16:45:35.969Z,99000.40
2019-05-10T16:48:05.926Z,99004.67
2019-05-10T16:50:34.761Z,99012.52
2019-05-10T16:53:05.927Z,99012.70
2019-05-10T16:55:35.578Z,99014.62
2019-05-10T16:58:09.423Z,99018.55
2019-05-10T17:00:35.263Z,99022.27
2019-05-10T17:03:03.895Z,99023.23
2019-05-10T17:05:33.206Z,99021.84
2019-05-10T17:08:01.881Z,99026.55
2019-05-10T17:10:33.095Z,99023.34
2019-05-10T17:13:05.063Z,99020.95
2019-05-10T17:15:34.053Z,99018.30
2019-05-10T17:18:02.099Z,99026.52
2019-05-10T17:20:31.407Z,99029.08
2019-05-10T17:23:07.685Z,99039.88
2019-05-10T17:25:30.648Z,99050.66
2019-05-10T17:28:00.043Z,99049.26
2019-05-10T17:30:29.505Z,99049.92
2019-05-10T17:33:04.145Z,99059.97
2019-05-10T17:35:28.801Z,99061.28
2019-05-10T17:37:57.425Z,99062.98
2019-05-10T17:40:25.929Z,99060.44
2019-05-10T17:42:54.515Z,99069.03
2019-05-10T17:45:23.140Z,99069.85
2019-05-10T17:47:51.652Z,99062.87
2019-05-10T17:50:20.489Z,99068.12
2019-05-10T17:52:49.018Z,99073.44
2019-05-10T17:55:18.512Z,99074.30
2019-05-10T17:57:48.733Z,99069.28
2019-05-10T18:00:18.233Z,99071.66
2019-05-10T18:02:47.141Z,99066.55
2019-05-10T18:05:15.849Z,99072.87
2019-05-10T18:07:44.970Z,99077.10
2019-05-10T18:10:13.996Z,99075.19
2019-05-10T18:12:42.850Z,99070.61
2019-05-10T18:15:11.447Z,99073.70
2019-05-10T18:17:40.040Z,99083.70
2019-05-10T18:20:09.778Z,99089.90
2019-05-10T18:22:43.263Z,99095.00
2019-05-10T18:25:19.519Z,99102.94
2019-05-10T18:27:39.716Z,99102.27
2019-05-10T18:30:09.073Z,99098.45
2019-05-10T18:32:37.641Z,99104.69
2019-05-10T18:37:37.556Z,99110.50
2019-05-10T18:40:07.004Z,99114.89
2019-05-10T18:42:35.655Z,99113.02
2019-05-10T18:45:04.840Z,99104.73
2019-05-10T18:47:33.374Z,99104.05
2019-05-10T18:50:01.902Z,99106.02
2019-05-10T18:52:30.903Z,99106.88
2019-05-10T18:54:59.612Z,99109.28
2019-05-10T18:57:28.213Z,99124.45
2019-05-10T18:59:56.722Z,99133.10
2019-05-10T19:02:25.221Z,99143.33
2019-05-10T19:04:54.310Z,99145.95
2019-05-10T19:07:23.066Z,99140.10
2019-05-10T19:09:51.806Z,99149.66
2019-05-10T19:12:22.495Z,99149.73
2019-05-10T19:14:51.067Z,99151.16
2019-05-10T19:17:19.697Z,99158.08
2019-05-10T19:19:48.623Z,99156.20
2019-05-10T19:22:17.695Z,99162.81
2019-05-10T19:24:46.756Z,99160.16
2019-05-10T19:27:15.365Z,99159.94
2019-05-10T19:29:47.627Z,99166.79
2019-05-10T19:32:18.315Z,99166.31
2019-05-10T19:34:48.351Z,99169.20
2019-05-10T19:37:29.675Z,99174.14
2019-05-10T19:39:47.239Z,99178.37
2019-05-10T19:42:17.050Z,99179.02
2019-05-10T19:44:45.628Z,99179.39
2019-05-10T19:47:17.784Z,99175.95
2019-05-10T19:49:45.969Z,99181.16
2019-05-10T19:52:21.276Z,99184.91
2019-05-10T19:54:46.238Z,99180.18
2019-05-10T19:57:18.553Z,99183.92
2019-05-10T19:59:48.920Z,99192.27
2019-05-10T20:02:15.667Z,99184.56
2019-05-10T20:04:44.414Z,99188.42
2019-05-10T20:07:12.918Z,99186.14
2019-05-10T20:09:41.454Z,99195.75
2019-05-10T20:12:10.471Z,99193.10
2019-05-10T20:14:39.037Z,99198.41
2019-05-10T20:17:07.659Z,99199.25
2019-05-10T20:19:36.305Z,99197.42
2019-05-10T20:22:04.931Z,99201.27
2019-05-10T20:24:33.560Z,99203.73
2019-05-10T20:27:02.231Z,99199.39
2019-05-10T20:29:31.093Z,99206.36
2019-05-10T20:31:59.915Z,99205.88
2019-05-10T20:34:29.916Z,99199.99
2019-05-10T20:36:58.435Z,99202.65
2019-05-10T20:39:26.849Z,99207.70
2019-05-10T20:41:57.913Z,99213.00
2019-05-10T20:44:30.642Z,99214.46
2019-05-10T20:46:59.229Z,99219.75
2019-05-10T20:49:30.289Z,99220.47
2019-05-10T20:51:58.946Z,99228.20
2019-05-10T20:54:27.617Z,99234.89
2019-05-10T20:56:56.385Z,99233.27
2019-05-10T20:59:25.003Z,99231.20
2019-05-10T21:01:53.752Z,99236.42
2019-05-10T21:04:24.977Z,99241.95
2019-05-10T21:06:53.604Z,99236.22
2019-05-10T21:09:22.101Z,99235.77
2019-05-10T21:11:51.205Z,99236.11
2019-05-10T21:14:23.092Z,99238.08
2019-05-10T21:16:54.556Z,99242.53
2019-05-10T21:19:23.195Z,99245.02
2019-05-10T21:22:01.589Z,99246.81
2019-05-10T21:24:30.211Z,99243.88
2019-05-10T21:26:58.768Z,99253.42
2019-05-10T21:29:27.265Z,99246.20
2019-05-10T21:31:55.844Z,99246.09
2019-05-10T21:34:24.428Z,99240.34
2019-05-10T21:36:53.053Z,99245.23
2019-05-10T21:39:21.616Z,99239.56
2019-05-10T21:41:50.225Z,99239.18
2019-05-10T21:44:18.691Z,99234.45
2019-05-10T21:46:47.383Z,99237.73
2019-05-10T21:49:15.863Z,99241.39
2019-05-10T21:51:44.441Z,99244.20
2019-05-10T21:54:13.003Z,99245.45
2019-05-10T21:56:41.584Z,99242.94
2019-05-10T21:59:09.967Z,99247.27
2019-05-10T22:01:38.453Z,99253.33
2019-05-10T22:04:06.928Z,99246.86
2019-05-10T22:06:35.474Z,99250.91
2019-05-10T22:09:05.697Z,99250.59
2019-05-10T22:11:34.291Z,99253.32
2019-05-10T22:14:02.959Z,99262.95
2019-05-10T22:16:31.692Z,99257.84
2019-05-10T22:19:01.688Z,99252.60
2019-05-10T22:21:30.179Z,99252.84
2019-05-10T22:23:58.688Z,99252.05
2019-05-10T22:26:27.193Z,99253.91
2019-05-10T22:28:55.792Z,99255.92
2019-05-10T22:31:24.269Z,99255.17
2019-05-10T22:33:52.857Z,99254.86
2019-05-10T22:36:21.443Z,99251.32
2019-05-10T22:39:05.807Z,99253.97
2019-05-10T22:41:20.511Z,99256.94
2019-05-10T22:43:49.104Z,99255.86
2019-05-10T22:46:17.655Z,99259.99
2019-05-10T22:48:46.143Z,99258.42
2019-05-10T22:51:14.765Z,99255.27
2019-05-10T22:53:43.369Z,99257.47
2019-05-10T22:56:11.843Z,99260.41
2019-05-10T22:58:40.343Z,99259.73
2019-05-10T23:01:08.795Z,99255.67
2019-05-10T23:03:37.286Z,99255.86
2019-05-10T23:06:05.764Z,99256.70
2019-05-10T23:08:34.258Z,99256.15
2019-05-10T23:11:02.819Z,99256.80
2019-05-10T23:13:31.310Z,99255.69
2019-05-10T23:15:59.832Z,99256.92
2019-05-10T23:18:28.430Z,99261.16
2019-05-10T23:20:56.906Z,99259.73
2019-05-10T23:23:25.506Z,99253.97
2019-05-10T23:25:54.013Z,99257.69
2019-05-10T23:28:22.565Z,99257.38
2019-05-10T23:30:51.177Z,99252.20
2019-05-10T23:33:19.760Z,99252.05
2019-05-10T23:35:48.393Z,99256.83
2019-05-10T23:38:16.863Z,99255.67
2019-05-10T23:40:45.454Z,99258.72
2019-05-10T23:43:14.058Z,99264.27
2019-05-10T23:45:42.452Z,99259.57
2019-05-10T23:48:11.049Z,99261.63
2019-05-10T23:50:39.555Z,99256.92
2019-05-10T23:53:08.062Z,99261.75
2019-05-10T23:55:36.665Z,99256.59
2019-05-10T23:58:05.285Z,99259.75
